createdAt,value
2018-08-24T00:01:35.192Z,63.36
2018-08-24T00:04:06.860Z,63.36
2018-08-24T00:06:34.745Z,64.28
2018-08-24T00:09:02.780Z,64.29
2018-08-24T00:11:30.459Z,63.31
2018-08-24T00:13:58.120Z,63.58
2018-08-24T00:16:31.345Z,63.76
2018-08-24T00:18:58.997Z,63.90
2018-08-24T00:21:26.665Z,63.70
2018-08-24T00:23:54.301Z,63.87
2018-08-24T00:26:21.981Z,64.09
2018-08-24T00:28:49.623Z,64.99
2018-08-24T00:31:17.277Z,63.76
2018-08-24T00:33:50.210Z,63.64
2018-08-24T00:36:17.853Z,62.67
2018-08-24T00:38:45.609Z,63.12
2018-08-24T00:41:13.353Z,63.26
2018-08-24T00:43:41.025Z,62.97
2018-08-24T00:46:08.721Z,63.19
2018-08-24T00:48:36.593Z,63.04
2018-08-24T00:51:04.325Z,62.74
2018-08-24T00:53:31.990Z,64.06
2018-08-24T00:55:59.649Z,64.39
2018-08-24T00:58:27.297Z,64.79
2018-08-24T01:01:00.846Z,64.06
2018-08-24T01:03:29.030Z,64.97
2018-08-24T01:05:56.697Z,63.95
2018-08-24T01:08:24.385Z,64.18
2018-08-24T01:10:52.049Z,63.82
2018-08-24T01:13:19.700Z,63.60
2018-08-24T01:15:52.368Z,63.92
2018-08-24T01:18:22.160Z,64.35
2018-08-24T01:20:51.153Z,64.29
2018-08-24T01:23:21.380Z,63.77
2018-08-24T01:25:49.237Z,64.55
2018-08-24T01:28:17.848Z,64.07
2018-08-24T01:30:46.533Z,64.26
2018-08-24T01:33:14.317Z,64.34
2018-08-24T01:35:41.978Z,65.16
2018-08-24T01:38:09.910Z,65.25
2018-08-24T01:40:37.673Z,65.30
2018-08-24T01:43:05.518Z,64.20
2018-08-24T01:45:33.209Z,65.05
2018-08-24T01:48:00.853Z,65.66
2018-08-24T01:50:28.513Z,64.93
2018-08-24T01:52:56.201Z,65.68
2018-08-24T01:55:23.845Z,65.00
2018-08-24T01:57:51.501Z,64.54
2018-08-24T02:00:19.209Z,64.36
2018-08-24T02:02:46.874Z,64.44
2018-08-24T02:05:14.565Z,64.79
2018-08-24T02:07:42.302Z,63.94
2018-08-24T02:10:15.462Z,64.22
2018-08-24T02:12:48.644Z,63.82
2018-08-24T02:15:16.385Z,64.38
2018-08-24T02:17:49.648Z,63.57
2018-08-24T02:20:22.706Z,64.41
2018-08-24T02:22:53.978Z,63.59
2018-08-24T02:25:22.135Z,64.39
2018-08-24T02:27:49.789Z,64.22
2018-08-24T02:30:17.437Z,63.82
2018-08-24T02:32:45.105Z,64.87
2018-08-24T02:35:12.761Z,63.79
2018-08-24T02:37:40.485Z,64.05
2018-08-24T02:40:08.149Z,64.45
2018-08-24T02:42:35.793Z,64.26
2018-08-24T02:45:03.700Z,64.10
2018-08-24T02:47:31.301Z,65.10
2018-08-24T02:49:58.981Z,65.35
2018-08-24T02:52:26.633Z,65.89
2018-08-24T02:54:54.318Z,65.17
2018-08-24T02:57:21.969Z,64.81
2018-08-24T02:59:49.645Z,64.20
2018-08-24T03:02:17.338Z,64.37
2018-08-24T03:04:44.988Z,64.44
2018-08-24T03:07:12.670Z,63.88
2018-08-24T03:09:40.314Z,64.26
2018-08-24T03:12:07.981Z,64.29
2018-08-24T03:14:35.637Z,64.28
2018-08-24T03:17:09.094Z,63.84
2018-08-24T03:19:36.769Z,64.12
2018-08-24T03:22:04.445Z,63.08
2018-08-24T03:24:32.142Z,63.80
2018-08-24T03:26:59.817Z,64.25
2018-08-24T03:29:27.794Z,64.08
2018-08-24T03:31:55.523Z,64.89
2018-08-24T03:34:23.190Z,64.36
2018-08-24T03:36:50.912Z,64.76
2018-08-24T03:39:18.562Z,63.38
2018-08-24T03:41:46.234Z,62.65
2018-08-24T03:44:13.925Z,62.01
2018-08-24T03:46:41.565Z,61.77
2018-08-24T03:49:09.265Z,60.31
2018-08-24T03:51:37.055Z,60.58
2018-08-24T03:54:20.946Z,59.28
2018-08-24T03:56:53.758Z,60.10
2018-08-24T03:59:21.807Z,59.01
2018-08-24T04:01:49.527Z,55.06
2018-08-24T04:04:24.120Z,51.60
2018-08-24T04:06:51.817Z,48.16
2018-08-24T04:09:19.457Z,45.98
2018-08-24T04:11:47.173Z,45.69
2018-08-24T04:14:14.829Z,43.17
2018-08-24T04:16:47.868Z,42.48
2018-08-24T04:19:21.068Z,40.58
2018-08-24T04:21:48.725Z,38.47
2018-08-24T04:24:16.426Z,36.75
2018-08-24T04:26:44.121Z,35.42
2018-08-24T04:29:11.789Z,34.15
2018-08-24T04:31:39.457Z,33.17
2018-08-24T04:34:07.133Z,32.81
2018-08-24T04:36:35.365Z,32.63
2018-08-24T04:39:04.153Z,30.81
2018-08-24T04:41:32.176Z,30.71
2018-08-24T04:43:59.878Z,30.55
2018-08-24T04:46:27.527Z,33.16
2018-08-24T04:48:55.230Z,33.87
2018-08-24T04:51:23.031Z,33.67
2018-08-24T04:53:50.778Z,34.11
2018-08-24T04:56:18.455Z,35.82
2018-08-24T04:58:46.117Z,34.63
2018-08-24T05:01:13.801Z,35.08
2018-08-24T05:03:41.537Z,36.70
2018-08-24T05:06:09.222Z,38.90
2018-08-24T05:08:36.973Z,40.40
2018-08-24T05:11:04.741Z,39.82
2018-08-24T05:13:32.377Z,38.96
2018-08-24T05:16:00.453Z,37.75
2018-08-24T05:18:28.141Z,35.91
2018-08-24T05:20:55.858Z,34.00
2018-08-24T05:23:23.622Z,32.00
2018-08-24T05:25:51.406Z,31.00
2018-08-24T05:28:19.088Z,31.52
2018-08-24T05:30:46.745Z,29.74
2018-08-24T05:33:14.506Z,30.04
2018-08-24T05:35:42.246Z,29.05
2018-08-24T05:38:09.881Z,30.42
2018-08-24T05:40:37.846Z,30.52
2018-08-24T05:43:05.547Z,32.72
2018-08-24T05:45:33.277Z,34.61
2018-08-24T05:48:00.933Z,35.27
2018-08-24T05:50:28.729Z,36.24
2018-08-24T05:52:56.553Z,37.52
2018-08-24T05:55:24.257Z,41.39
2018-08-24T05:57:51.985Z,41.38
2018-08-24T06:00:24.127Z,41.64
2018-08-24T06:02:51.816Z,41.96
2018-08-24T06:05:19.473Z,43.89
2018-08-24T06:07:47.193Z,43.28
2018-08-24T06:10:14.854Z,44.54
2018-08-24T06:12:42.520Z,41.98
2018-08-24T06:15:10.289Z,39.99
2018-08-24T06:17:43.387Z,41.45
2018-08-24T06:20:11.075Z,38.92
2018-08-24T06:22:39.041Z,38.24
2018-08-24T06:25:06.821Z,41.42
2018-08-24T06:27:34.531Z,40.41
2018-08-24T06:30:02.216Z,40.45
2018-08-24T06:32:29.959Z,41.40
2018-08-24T06:34:57.669Z,41.31
2018-08-24T06:37:25.309Z,42.80
2018-08-24T06:39:52.961Z,42.96
2018-08-24T06:42:20.661Z,44.11
2018-08-24T06:44:48.393Z,42.62
2018-08-24T06:47:16.103Z,40.82
2018-08-24T06:49:44.028Z,41.07
2018-08-24T06:52:11.685Z,38.90
2018-08-24T06:54:39.337Z,36.89
2018-08-24T06:57:07.078Z,34.77
2018-08-24T06:59:34.763Z,34.72
2018-08-24T07:02:02.418Z,34.13
2018-08-24T07:04:30.086Z,35.26
2018-08-24T07:06:57.750Z,33.86
2018-08-24T07:09:25.501Z,34.97
2018-08-24T07:11:53.174Z,36.25
2018-08-24T07:14:20.842Z,34.02
2018-08-24T07:16:51.730Z,35.03
2018-08-24T07:19:19.394Z,34.27
2018-08-24T07:21:47.067Z,34.56
2018-08-24T07:24:14.757Z,35.84
2018-08-24T07:26:42.478Z,36.27
2018-08-24T07:29:10.150Z,35.07
2018-08-24T07:31:37.809Z,35.75
2018-08-24T07:34:05.533Z,32.66
2018-08-24T07:36:33.204Z,32.86
2018-08-24T07:39:00.865Z,35.26
2018-08-24T07:41:29.523Z,33.55
2018-08-24T07:43:57.201Z,34.07
2018-08-24T07:46:25.171Z,32.04
2018-08-24T07:48:52.894Z,32.84
2018-08-24T07:51:20.575Z,32.71
2018-08-24T07:53:48.260Z,31.28
2018-08-24T07:56:15.948Z,31.51
2018-08-24T07:58:43.627Z,32.54
2018-08-24T08:01:11.364Z,32.63
2018-08-24T08:03:39.056Z,32.47
2018-08-24T08:06:06.745Z,32.99
2018-08-24T08:08:34.440Z,35.27
2018-08-24T08:11:02.090Z,33.14
2018-08-24T08:13:29.763Z,32.06
2018-08-24T08:15:57.450Z,32.38
2018-08-24T08:18:25.099Z,33.07
2018-08-24T08:20:52.792Z,31.71
2018-08-24T08:23:20.481Z,31.25
2018-08-24T08:25:48.301Z,31.74
2018-08-24T08:28:16.064Z,32.79
2018-08-24T08:30:43.757Z,34.39
2018-08-24T08:33:11.421Z,33.73
2018-08-24T08:35:39.075Z,33.00
2018-08-24T08:38:06.930Z,32.05
2018-08-24T08:40:34.585Z,33.31
2018-08-24T08:43:02.240Z,32.50
2018-08-24T08:45:29.986Z,33.64
2018-08-24T08:47:57.613Z,33.89
2018-08-24T08:50:25.261Z,35.07
2018-08-24T08:52:54.015Z,35.03
2018-08-24T08:55:21.712Z,34.65
2018-08-24T08:57:49.397Z,33.21
2018-08-24T09:00:17.081Z,32.58
2018-08-24T09:02:44.740Z,32.77
2018-08-24T09:05:12.425Z,33.06
2018-08-24T09:07:40.125Z,32.53
2018-08-24T09:10:07.845Z,31.85
2018-08-24T09:12:35.513Z,32.18
2018-08-24T09:15:03.272Z,29.71
2018-08-24T09:17:36.462Z,31.12
2018-08-24T09:20:09.872Z,31.78
2018-08-24T09:22:43.001Z,30.85
2018-08-24T09:25:16.318Z,29.64
2018-08-24T09:27:49.482Z,29.32
2018-08-24T09:30:17.257Z,28.49
2018-08-24T09:32:45.180Z,29.56
2018-08-24T09:35:12.745Z,28.69
2018-08-24T09:37:40.448Z,30.03
2018-08-24T09:40:08.468Z,32.46
2018-08-24T09:42:36.125Z,31.13
2018-08-24T09:45:04.290Z,29.42
2018-08-24T09:47:37.341Z,29.08
2018-08-24T09:50:11.369Z,28.64
2018-08-24T09:52:39.113Z,29.68
2018-08-24T09:55:06.870Z,29.17
2018-08-24T09:57:34.557Z,29.04
2018-08-24T10:00:02.354Z,29.74
2018-08-24T10:02:35.611Z,30.41
2018-08-24T10:05:08.751Z,30.18
2018-08-24T10:07:41.911Z,29.30
2018-08-24T10:10:09.577Z,28.33
2018-08-24T10:12:38.043Z,30.23
2018-08-24T10:15:07.728Z,30.86
2018-08-24T10:17:35.438Z,30.54
2018-08-24T10:20:03.220Z,30.32
2018-08-24T10:22:31.798Z,27.69
2018-08-24T10:24:59.487Z,27.30
2018-08-24T10:27:27.241Z,28.75
2018-08-24T10:29:54.937Z,30.18
2018-08-24T10:32:22.602Z,30.66
2018-08-24T10:34:50.253Z,27.97
2018-08-24T10:37:18.093Z,27.55
2018-08-24T10:39:45.757Z,26.56
2018-08-24T10:42:13.486Z,27.79
2018-08-24T10:44:41.197Z,26.95
2018-08-24T10:47:08.855Z,26.64
2018-08-24T10:49:36.517Z,26.71
2018-08-24T10:52:04.225Z,24.47
2018-08-24T10:54:31.889Z,24.72
2018-08-24T10:56:59.582Z,25.27
2018-08-24T10:59:27.259Z,26.10
2018-08-24T11:01:54.966Z,25.74
2018-08-24T11:04:22.640Z,24.68
2018-08-24T11:06:50.347Z,25.32
2018-08-24T11:09:18.003Z,24.79
2018-08-24T11:11:45.776Z,24.96
2018-08-24T11:14:13.437Z,23.90
2018-08-24T11:16:41.104Z,23.36
2018-08-24T11:19:08.783Z,25.72
2018-08-24T11:21:36.477Z,23.89
2018-08-24T11:24:04.141Z,22.71
2018-08-24T11:26:31.812Z,23.56
2018-08-24T11:29:00.197Z,23.74
2018-08-24T11:31:27.948Z,23.50
2018-08-24T11:33:55.695Z,23.17
2018-08-24T11:36:23.568Z,22.23
2018-08-24T11:38:51.230Z,22.24
2018-08-24T11:41:18.905Z,22.25
2018-08-24T11:46:22.005Z,20.14
2018-08-24T11:48:49.713Z,20.27
2018-08-24T11:51:17.500Z,23.11
2018-08-24T11:53:45.274Z,24.69
2018-08-24T11:56:12.961Z,25.26
2018-08-24T11:58:40.641Z,25.16
2018-08-24T12:01:08.481Z,24.59
2018-08-24T12:03:36.196Z,24.38
2018-08-24T12:06:03.880Z,25.15
2018-08-24T12:08:31.568Z,24.04
2018-08-24T12:10:59.277Z,22.39
2018-08-24T12:13:26.981Z,22.23
2018-08-24T12:15:54.744Z,22.62
2018-08-24T12:18:22.622Z,22.48
2018-08-24T12:20:50.336Z,23.65
2018-08-24T12:23:18.098Z,21.52
2018-08-24T12:25:45.841Z,22.97
2018-08-24T12:28:13.582Z,23.03
2018-08-24T12:30:41.360Z,24.13
2018-08-24T12:33:09.040Z,23.66
2018-08-24T12:35:36.753Z,23.75
2018-08-24T12:38:05.211Z,24.18
2018-08-24T12:40:32.937Z,23.75
2018-08-24T12:43:00.662Z,24.05
2018-08-24T12:45:28.761Z,23.33
2018-08-24T12:47:56.473Z,24.26
2018-08-24T12:50:24.257Z,25.19
2018-08-24T12:52:52.001Z,25.12
2018-08-24T12:55:19.698Z,24.20
2018-08-24T12:57:47.445Z,24.15
2018-08-24T13:00:15.201Z,23.96
2018-08-24T13:02:42.949Z,22.58
2018-08-24T13:05:10.701Z,22.89
2018-08-24T13:07:38.453Z,22.95
2018-08-24T13:10:06.201Z,23.21
2018-08-24T13:12:33.899Z,24.19
2018-08-24T13:15:01.809Z,22.80
2018-08-24T13:17:29.494Z,23.08
2018-08-24T13:19:57.221Z,23.54
2018-08-24T13:22:24.968Z,24.99
2018-08-24T13:24:52.750Z,25.15
2018-08-24T13:27:20.509Z,24.71
2018-08-24T13:29:48.185Z,24.09
2018-08-24T13:32:15.915Z,24.97
2018-08-24T13:34:43.605Z,24.56
2018-08-24T13:37:11.988Z,22.48
2018-08-24T13:39:39.650Z,23.61
2018-08-24T13:42:07.396Z,24.01
2018-08-24T13:44:35.097Z,24.00
2018-08-24T13:47:02.869Z,24.85
2018-08-24T13:49:30.580Z,25.91
2018-08-24T13:51:58.340Z,25.29
2018-08-24T13:54:26.013Z,25.72
2018-08-24T13:56:53.708Z,25.38
2018-08-24T13:59:21.508Z,26.15
2018-08-24T14:01:49.197Z,25.33
2018-08-24T14:04:16.961Z,24.99
2018-08-24T14:06:44.683Z,24.51
2018-08-24T14:09:12.882Z,25.86
2018-08-24T14:11:40.567Z,24.17
2018-08-24T14:14:08.422Z,23.67
2018-08-24T14:16:36.577Z,25.48
2018-08-24T14:19:04.335Z,24.24
2018-08-24T14:21:32.122Z,23.51
2018-08-24T14:23:59.852Z,24.05
2018-08-24T14:26:27.559Z,24.47
2018-08-24T14:28:55.650Z,24.37
2018-08-24T14:31:23.385Z,24.75
2018-08-24T14:33:51.048Z,25.16
2018-08-24T14:36:18.796Z,25.05
2018-08-24T14:38:46.583Z,24.78
2018-08-24T14:41:14.339Z,25.06
2018-08-24T14:43:42.102Z,24.96
2018-08-24T14:46:09.799Z,25.39
2018-08-24T14:48:37.603Z,24.69
2018-08-24T14:51:05.468Z,24.34
2018-08-24T14:53:33.313Z,24.80
2018-08-24T14:56:01.014Z,25.51
2018-08-24T14:58:28.709Z,24.15
2018-08-24T15:00:56.414Z,25.30
2018-08-24T15:03:24.081Z,24.17
2018-08-24T15:05:51.770Z,23.62
2018-08-24T15:08:19.429Z,22.28
2018-08-24T15:10:47.094Z,23.21
2018-08-24T15:13:14.816Z,22.54
2018-08-24T15:15:42.480Z,22.42
2018-08-24T15:18:10.135Z,22.39
2018-08-24T15:20:37.849Z,23.74
2018-08-24T15:23:05.548Z,24.04
2018-08-24T15:25:33.279Z,24.70
2018-08-24T15:28:00.962Z,26.58
2018-08-24T15:30:28.625Z,26.22
2018-08-24T15:32:56.287Z,26.02
2018-08-24T15:35:23.993Z,25.54
2018-08-24T15:37:51.646Z,25.34
2018-08-24T15:40:19.307Z,25.84
2018-08-24T15:42:47.218Z,26.24
2018-08-24T15:45:14.881Z,26.47
2018-08-24T15:47:42.590Z,26.45
2018-08-24T15:50:10.318Z,26.15
2018-08-24T15:52:38.000Z,25.79
2018-08-24T15:55:05.943Z,25.91
2018-08-24T15:57:33.631Z,27.85
2018-08-24T16:00:01.355Z,26.53
2018-08-24T16:02:28.998Z,26.93
2018-08-24T16:04:56.701Z,27.96
2018-08-24T16:07:24.388Z,29.11
2018-08-24T16:09:52.042Z,28.95
2018-08-24T16:12:19.834Z,28.99
2018-08-24T16:14:48.355Z,30.62
2018-08-24T16:17:16.009Z,32.06
2018-08-24T16:19:43.694Z,33.02
2018-08-24T16:22:11.833Z,33.95
2018-08-24T16:24:39.410Z,35.06
2018-08-24T16:27:09.003Z,35.24
2018-08-24T16:29:36.694Z,35.80
2018-08-24T16:32:04.502Z,35.75
2018-08-24T16:34:32.189Z,38.05
2018-08-24T16:36:59.897Z,37.39
2018-08-24T16:39:27.590Z,37.41
2018-08-24T16:41:55.294Z,37.69
2018-08-24T16:44:22.937Z,38.14
2018-08-24T16:46:50.635Z,37.50
2018-08-24T16:49:18.392Z,37.46
2018-08-24T16:51:46.053Z,38.38
2018-08-24T16:54:13.717Z,38.12
2018-08-24T16:56:41.394Z,40.02
2018-08-24T16:59:09.050Z,39.19
2018-08-24T17:01:36.704Z,39.84
2018-08-24T17:04:04.433Z,39.79
2018-08-24T17:06:32.085Z,39.69
2018-08-24T17:08:59.731Z,39.41
2018-08-24T17:11:27.410Z,39.80
2018-08-24T17:13:55.071Z,41.44
2018-08-24T17:16:23.025Z,42.55
2018-08-24T17:18:50.774Z,42.85
2018-08-24T17:21:18.462Z,43.77
2018-08-24T17:23:46.178Z,44.11
2018-08-24T17:26:13.910Z,44.52
2018-08-24T17:28:41.620Z,43.94
2018-08-24T17:31:09.338Z,43.91
2018-08-24T17:33:37.060Z,43.62
2018-08-24T17:36:04.824Z,44.08
2018-08-24T17:38:32.535Z,43.49
2018-08-24T17:41:00.273Z,43.80
2018-08-24T17:43:27.972Z,43.42
2018-08-24T17:45:55.617Z,43.35
2018-08-24T17:48:23.337Z,44.32
2018-08-24T17:50:51.030Z,44.56
2018-08-24T17:53:18.724Z,43.88
2018-08-24T17:55:46.490Z,43.81
2018-08-24T17:58:14.174Z,43.83
2018-08-24T18:00:41.874Z,44.05
2018-08-24T18:03:09.582Z,43.78
2018-08-24T18:05:37.302Z,43.83
2018-08-24T18:08:05.246Z,44.59
2018-08-24T18:10:33.018Z,45.11
2018-08-24T18:13:00.772Z,44.02
2018-08-24T18:15:28.479Z,44.43
2018-08-24T18:17:56.214Z,44.22
2018-08-24T18:20:23.923Z,42.91
2018-08-24T18:22:51.644Z,42.43
2018-08-24T18:25:19.346Z,43.06
2018-08-24T18:27:47.031Z,44.00
2018-08-24T18:30:14.744Z,44.17
2018-08-24T18:32:42.520Z,42.58
2018-08-24T18:35:10.217Z,43.01
2018-08-24T18:37:37.941Z,42.61
2018-08-24T18:40:06.221Z,42.22
2018-08-24T18:42:33.901Z,41.97
2018-08-24T18:45:01.618Z,42.54
2018-08-24T18:47:29.385Z,42.08
2018-08-24T18:49:57.079Z,41.90
2018-08-24T18:52:24.789Z,41.27
2018-08-24T18:54:52.513Z,41.95
2018-08-24T18:57:20.237Z,41.36
2018-08-24T18:59:47.937Z,41.56
2018-08-24T19:02:15.765Z,41.25
2018-08-24T19:04:43.472Z,40.08
2018-08-24T19:07:11.182Z,39.78
2018-08-24T19:09:38.925Z,39.41
2018-08-24T19:12:12.134Z,39.93
2018-08-24T19:14:39.923Z,40.33
2018-08-24T19:17:12.157Z,41.72
2018-08-24T19:19:45.438Z,41.67
2018-08-24T19:22:13.156Z,42.31
2018-08-24T19:24:40.861Z,42.63
2018-08-24T19:27:08.613Z,43.82
2018-08-24T19:29:41.746Z,43.75
2018-08-24T19:32:09.476Z,42.59
2018-08-24T19:34:37.245Z,42.67
2018-08-24T19:37:04.947Z,42.90
2018-08-24T19:39:32.718Z,43.42
2018-08-24T19:42:06.029Z,43.97
2018-08-24T19:44:33.769Z,45.61
2018-08-24T19:47:01.469Z,46.31
2018-08-24T19:49:29.232Z,46.22
2018-08-24T19:51:56.930Z,46.44
2018-08-24T19:54:24.589Z,46.73
2018-08-24T19:56:52.252Z,46.42
2018-08-24T19:59:20.025Z,46.80
2018-08-24T20:01:47.765Z,46.99
2018-08-24T20:04:15.464Z,46.23
2018-08-24T20:06:48.582Z,46.27
2018-08-24T20:09:21.828Z,46.48
2018-08-24T20:11:50.769Z,46.55
2018-08-24T20:14:23.898Z,46.48
2018-08-24T20:16:57.321Z,46.17
2018-08-24T20:19:25.171Z,46.05
2018-08-24T20:21:52.895Z,46.68
2018-08-24T20:24:20.897Z,46.88
2018-08-24T20:26:49.194Z,46.98
2018-08-24T20:29:17.297Z,47.42
2018-08-24T20:31:45.045Z,48.29
2018-08-24T20:34:12.796Z,48.08
2018-08-24T20:36:40.465Z,49.02
2018-08-24T20:39:09.265Z,49.57
2018-08-24T20:41:36.949Z,48.80
2018-08-24T20:44:04.697Z,49.24
2018-08-24T20:46:32.465Z,50.10
2018-08-24T20:49:00.197Z,49.75
2018-08-24T20:51:27.876Z,50.36
2018-08-24T20:53:55.621Z,50.47
2018-08-24T20:56:23.282Z,51.54
2018-08-24T20:58:50.990Z,51.30
2018-08-24T21:01:18.804Z,50.67
2018-08-24T21:03:46.486Z,50.61
2018-08-24T21:06:14.201Z,51.60
2018-08-24T21:08:41.896Z,52.10
2018-08-24T21:11:09.557Z,52.18
2018-08-24T21:13:37.245Z,51.94
2018-08-24T21:16:05.029Z,52.43
2018-08-24T21:18:32.746Z,51.21
2018-08-24T21:21:00.593Z,51.71
2018-08-24T21:23:28.564Z,52.09
2018-08-24T21:25:56.265Z,52.36
2018-08-24T21:28:24.362Z,52.78
2018-08-24T21:30:52.093Z,52.20
2018-08-24T21:33:19.744Z,52.65
2018-08-24T21:35:47.428Z,52.09
2018-08-24T21:38:15.173Z,52.13
2018-08-24T21:40:43.018Z,51.84
2018-08-24T21:43:10.756Z,51.80
2018-08-24T21:45:38.553Z,51.48
2018-08-24T21:48:06.321Z,51.40
2018-08-24T21:50:34.007Z,51.36
2018-08-24T21:53:01.744Z,51.06
2018-08-24T21:55:29.418Z,52.07
2018-08-24T21:57:57.173Z,51.48
2018-08-24T22:00:25.010Z,52.11
2018-08-24T22:02:52.682Z,52.20
2018-08-24T22:05:20.345Z,52.58
2018-08-24T22:07:48.062Z,54.26
2018-08-24T22:10:15.742Z,54.04
2018-08-24T22:12:43.418Z,54.54
2018-08-24T22:15:11.119Z,54.77
2018-08-24T22:17:38.766Z,54.35
2018-08-24T22:20:06.493Z,53.69
2018-08-24T22:22:34.204Z,54.24
2018-08-24T22:25:01.886Z,54.56
2018-08-24T22:27:29.557Z,55.31
2018-08-24T22:29:57.337Z,54.92
2018-08-24T22:32:25.026Z,55.61
2018-08-24T22:34:52.726Z,55.86
2018-08-24T22:37:20.424Z,55.09
2018-08-24T22:39:48.086Z,56.35
2018-08-24T22:42:15.737Z,55.90
2018-08-24T22:44:43.422Z,56.03
2018-08-24T22:47:11.122Z,56.24
2018-08-24T22:49:38.789Z,56.32
2018-08-24T22:52:06.572Z,56.09
2018-08-24T22:54:34.236Z,56.13
2018-08-24T22:57:02.018Z,57.25
2018-08-24T22:59:29.759Z,57.20
2018-08-24T23:01:57.410Z,56.66
2018-08-24T23:04:25.066Z,56.70
2018-08-24T23:06:52.750Z,56.91
2018-08-24T23:09:20.414Z,57.91
2018-08-24T23:11:48.061Z,57.57
2018-08-24T23:14:15.742Z,57.58
2018-08-24T23:16:43.410Z,58.12
2018-08-24T23:19:11.076Z,58.78
2018-08-24T23:21:38.754Z,59.00
2018-08-24T23:24:06.450Z,59.45
2018-08-24T23:26:34.129Z,59.83
2018-08-24T23:29:01.836Z,59.78
2018-08-24T23:31:29.487Z,60.92
2018-08-24T23:33:57.183Z,61.13
2018-08-24T23:36:24.939Z,60.53
2018-08-24T23:38:52.634Z,60.29
2018-08-24T23:41:20.299Z,60.83
2018-08-24T23:43:48.079Z,60.47
2018-08-24T23:46:15.913Z,60.43
2018-08-24T23:48:43.570Z,59.42
2018-08-24T23:51:11.261Z,59.31
2018-08-24T23:53:38.916Z,58.93
2018-08-24T23:56:06.601Z,59.58
2018-08-24T23:58:34.287Z,59.14
